sensor_id;sensor_type;location;lat;lon;timestamp;temperature;humidity
22471;DHT22;11402;51.374;6.594;2023-02-26T00:00:16;0.90;99.90
22471;DHT22;11402;51.374;6.594;2023-02-26T00:02:45;0.90;99.90
22471;DHT22;11402;51.374;6.594;2023-02-26T00:05:13;1.10;99.90
22471;DHT22;11402;51.374;6.594;2023-02-26T00:07:39;1.00;99.90
22471;DHT22;11402;51.374;6.594;2023-02-26T00:10:06;0.90;99.90
22471;DHT22;11402;51.374;6.594;2023-02-26T00:12:32;0.90;99.90
22471;DHT22;11402;51.374;6.594;2023-02-26T00:14:58;0.90;99.90
22471;DHT22;11402;51.374;6.594;2023-02-26T00:20:11;0.80;99.90
22471;DHT22;11402;51.374;6.594;2023-02-26T00:22:38;0.90;99.90
22471;DHT22;11402;51.374;6.594;2023-02-26T00:25:04;0.90;99.90
22471;DHT22;11402;51.374;6.594;2023-02-26T00:27:30;0.90;99.90
22471;DHT22;11402;51.374;6.594;2023-02-26T00:29:56;1.00;99.90
22471;DHT22;11402;51.374;6.594;2023-02-26T00:32:21;1.10;99.90
22471;DHT22;11402;51.374;6.594;2023-02-26T00:34:47;1.10;99.90
22471;DHT22;11402;51.374;6.594;2023-02-26T00:42:33;1.00;99.90
22471;DHT22;11402;51.374;6.594;2023-02-26T00:44:59;1.00;99.90
22471;DHT22;11402;51.374;6.594;2023-02-26T00:47:48;1.10;99.90
22471;DHT22;11402;51.374;6.594;2023-02-26T00:50:21;1.20;99.90
22471;DHT22;11402;51.374;6.594;2023-02-26T00:55:23;1.20;99.90
22471;DHT22;11402;51.374;6.594;2023-02-26T00:57:49;1.20;99.90
22471;DHT22;11402;51.374;6.594;2023-02-26T01:00:14;1.20;99.90
22471;DHT22;11402;51.374;6.594;2023-02-26T01:02:41;1.40;99.90
22471;DHT22;11402;51.374;6.594;2023-02-26T01:05:08;1.30;99.90
22471;DHT22;11402;51.374;6.594;2023-02-26T01:07:41;1.20;99.90
22471;DHT22;11402;51.374;6.594;2023-02-26T01:10:09;1.20;99.90
22471;DHT22;11402;51.374;6.594;2023-02-26T01:12:35;1.10;99.90
22471;DHT22;11402;51.374;6.594;2023-02-26T01:15:02;1.20;99.90
22471;DHT22;11402;51.374;6.594;2023-02-26T01:17:33;1.30;99.90
22471;DHT22;11402;51.374;6.594;2023-02-26T01:20:01;1.20;99.90
22471;DHT22;11402;51.374;6.594;2023-02-26T01:22:36;1.20;99.90
22471;DHT22;11402;51.374;6.594;2023-02-26T01:25:09;1.20;99.90
22471;DHT22;11402;51.374;6.594;2023-02-26T01:27:35;1.20;99.90
22471;DHT22;11402;51.374;6.594;2023-02-26T01:30:03;1.10;99.90
22471;DHT22;11402;51.374;6.594;2023-02-26T01:32:56;1.10;99.90
22471;DHT22;11402;51.374;6.594;2023-02-26T01:41:02;1.30;99.90
22471;DHT22;11402;51.374;6.594;2023-02-26T01:46:22;1.20;99.90
22471;DHT22;11402;51.374;6.594;2023-02-26T01:48:51;1.40;99.90
22471;DHT22;11402;51.374;6.594;2023-02-26T01:51:36;1.30;99.90
22471;DHT22;11402;51.374;6.594;2023-02-26T01:54:03;1.30;99.90
22471;DHT22;11402;51.374;6.594;2023-02-26T01:56:29;1.40;99.90
22471;DHT22;11402;51.374;6.594;2023-02-26T01:58:54;1.40;99.90
22471;DHT22;11402;51.374;6.594;2023-02-26T02:01:20;1.30;99.90
22471;DHT22;11402;51.374;6.594;2023-02-26T02:03:46;1.20;99.90
22471;DHT22;11402;51.374;6.594;2023-02-26T02:06:23;1.30;99.90
22471;DHT22;11402;51.374;6.594;2023-02-26T02:08:50;1.10;99.90
22471;DHT22;11402;51.374;6.594;2023-02-26T02:11:16;1.10;99.90
22471;DHT22;11402;51.374;6.594;2023-02-26T02:14:05;0.90;99.90
22471;DHT22;11402;51.374;6.594;2023-02-26T02:17:13;0.80;99.90
22471;DHT22;11402;51.374;6.594;2023-02-26T02:25:10;1.00;99.90
22471;DHT22;11402;51.374;6.594;2023-02-26T02:27:46;1.10;99.90
22471;DHT22;11402;51.374;6.594;2023-02-26T02:30:30;0.90;99.90
22471;DHT22;11402;51.374;6.594;2023-02-26T02:33:04;1.00;99.90
22471;DHT22;11402;51.374;6.594;2023-02-26T02:35:52;0.90;99.90
22471;DHT22;11402;51.374;6.594;2023-02-26T02:38:38;1.10;99.90
22471;DHT22;11402;51.374;6.594;2023-02-26T02:41:20;1.20;99.90
22471;DHT22;11402;51.374;6.594;2023-02-26T02:43:48;1.10;99.90
22471;DHT22;11402;51.374;6.594;2023-02-26T02:46:22;1.00;99.90
22471;DHT22;11402;51.374;6.594;2023-02-26T02:48:57;0.70;99.90
22471;DHT22;11402;51.374;6.594;2023-02-26T02:51:29;0.50;99.90
22471;DHT22;11402;51.374;6.594;2023-02-26T02:56:34;0.50;99.90
22471;DHT22;11402;51.374;6.594;2023-02-26T02:59:20;0.60;99.90
22471;DHT22;11402;51.374;6.594;2023-02-26T03:01:47;0.40;99.90
22471;DHT22;11402;51.374;6.594;2023-02-26T03:04:15;0.60;99.90
22471;DHT22;11402;51.374;6.594;2023-02-26T03:06:41;0.50;99.90
22471;DHT22;11402;51.374;6.594;2023-02-26T03:09:09;0.40;99.90
22471;DHT22;11402;51.374;6.594;2023-02-26T03:11:35;0.30;99.90
22471;DHT22;11402;51.374;6.594;2023-02-26T03:14:02;0.20;99.90
22471;DHT22;11402;51.374;6.594;2023-02-26T03:19:20;0.20;99.90
22471;DHT22;11402;51.374;6.594;2023-02-26T03:24:59;0.20;99.90
22471;DHT22;11402;51.374;6.594;2023-02-26T03:27:42;0.10;99.90
22471;DHT22;11402;51.374;6.594;2023-02-26T03:30:34;0.20;99.90
22471;DHT22;11402;51.374;6.594;2023-02-26T03:33:05;0.30;99.90
22471;DHT22;11402;51.374;6.594;2023-02-26T03:35:41;0.20;99.90
22471;DHT22;11402;51.374;6.594;2023-02-26T03:38:13;0.20;99.90
22471;DHT22;11402;51.374;6.594;2023-02-26T03:40:46;0.10;99.90
22471;DHT22;11402;51.374;6.594;2023-02-26T03:44:02;0.20;99.90
22471;DHT22;11402;51.374;6.594;2023-02-26T03:46:13;0.40;99.90
22471;DHT22;11402;51.374;6.594;2023-02-26T03:48:39;0.70;99.90
22471;DHT22;11402;51.374;6.594;2023-02-26T03:51:10;0.50;99.90
22471;DHT22;11402;51.374;6.594;2023-02-26T03:53:50;0.30;99.90
22471;DHT22;11402;51.374;6.594;2023-02-26T03:56:23;0.20;99.90
22471;DHT22;11402;51.374;6.594;2023-02-26T03:58:50;0.30;99.90
22471;DHT22;11402;51.374;6.594;2023-02-26T04:01:22;0.20;99.90
22471;DHT22;11402;51.374;6.594;2023-02-26T04:03:56;0.40;99.90
22471;DHT22;11402;51.374;6.594;2023-02-26T04:06:23;0.30;99.90
22471;DHT22;11402;51.374;6.594;2023-02-26T04:08:49;0.30;99.90
22471;DHT22;11402;51.374;6.594;2023-02-26T04:11:18;0.20;99.90
22471;DHT22;11402;51.374;6.594;2023-02-26T04:13:45;0.10;99.90
22471;DHT22;11402;51.374;6.594;2023-02-26T04:16:11;0.40;99.90
22471;DHT22;11402;51.374;6.594;2023-02-26T04:18:36;0.50;99.90
22471;DHT22;11402;51.374;6.594;2023-02-26T04:21:02;0.30;99.90
22471;DHT22;11402;51.374;6.594;2023-02-26T04:23:29;0.20;99.90
22471;DHT22;11402;51.374;6.594;2023-02-26T04:25:54;0.20;99.90
22471;DHT22;11402;51.374;6.594;2023-02-26T04:28:20;0.50;99.90
22471;DHT22;11402;51.374;6.594;2023-02-26T04:30:45;0.60;99.90
22471;DHT22;11402;51.374;6.594;2023-02-26T04:33:12;0.50;99.90
22471;DHT22;11402;51.374;6.594;2023-02-26T04:35:38;0.30;99.90
22471;DHT22;11402;51.374;6.594;2023-02-26T04:38:03;0.00;99.90
22471;DHT22;11402;51.374;6.594;2023-02-26T04:40:29;0.40;99.90
22471;DHT22;11402;51.374;6.594;2023-02-26T04:42:55;0.40;99.90
22471;DHT22;11402;51.374;6.594;2023-02-26T04:45:21;0.20;99.90
22471;DHT22;11402;51.374;6.594;2023-02-26T04:47:47;0.30;99.90
22471;DHT22;11402;51.374;6.594;2023-02-26T04:50:12;0.40;99.90
22471;DHT22;11402;51.374;6.594;2023-02-26T04:52:38;0.40;99.90
22471;DHT22;11402;51.374;6.594;2023-02-26T04:55:04;0.30;99.90
22471;DHT22;11402;51.374;6.594;2023-02-26T04:57:31;0.20;99.90
22471;DHT22;11402;51.374;6.594;2023-02-26T04:59:57;0.00;99.90
22471;DHT22;11402;51.374;6.594;2023-02-26T05:02:22;0.10;99.90
22471;DHT22;11402;51.374;6.594;2023-02-26T05:04:48;0.20;99.90
22471;DHT22;11402;51.374;6.594;2023-02-26T05:07:14;0.20;99.90
22471;DHT22;11402;51.374;6.594;2023-02-26T05:09:39;0.10;99.90
22471;DHT22;11402;51.374;6.594;2023-02-26T05:12:05;0.00;99.90
22471;DHT22;11402;51.374;6.594;2023-02-26T05:14:30;0.00;99.90
22471;DHT22;11402;51.374;6.594;2023-02-26T05:16:56;0.00;99.90
22471;DHT22;11402;51.374;6.594;2023-02-26T05:19:21;0.20;99.90
22471;DHT22;11402;51.374;6.594;2023-02-26T05:21:47;0.10;99.90
22471;DHT22;11402;51.374;6.594;2023-02-26T05:24:14;0.40;99.90
22471;DHT22;11402;51.374;6.594;2023-02-26T05:26:39;0.10;99.90
22471;DHT22;11402;51.374;6.594;2023-02-26T05:29:05;0.20;99.90
22471;DHT22;11402;51.374;6.594;2023-02-26T05:31:31;0.20;99.90
22471;DHT22;11402;51.374;6.594;2023-02-26T05:33:56;0.00;99.90
22471;DHT22;11402;51.374;6.594;2023-02-26T05:36:22;0.00;99.90
22471;DHT22;11402;51.374;6.594;2023-02-26T05:38:48;0.20;99.90
22471;DHT22;11402;51.374;6.594;2023-02-26T05:41:13;0.20;99.90
22471;DHT22;11402;51.374;6.594;2023-02-26T05:43:39;-0.10;99.90
22471;DHT22;11402;51.374;6.594;2023-02-26T05:46:04;-0.10;99.90
22471;DHT22;11402;51.374;6.594;2023-02-26T05:48:30;-0.20;99.90
22471;DHT22;11402;51.374;6.594;2023-02-26T05:50:56;-0.20;99.90
22471;DHT22;11402;51.374;6.594;2023-02-26T05:53:21;-0.20;99.90
22471;DHT22;11402;51.374;6.594;2023-02-26T05:55:47;-0.10;99.90
22471;DHT22;11402;51.374;6.594;2023-02-26T05:58:13;-0.20;99.90
22471;DHT22;11402;51.374;6.594;2023-02-26T06:00:39;0.00;99.90
22471;DHT22;11402;51.374;6.594;2023-02-26T06:03:05;0.00;99.90
22471;DHT22;11402;51.374;6.594;2023-02-26T06:05:30;0.00;99.90
22471;DHT22;11402;51.374;6.594;2023-02-26T06:07:56;-0.20;99.90
22471;DHT22;11402;51.374;6.594;2023-02-26T06:10:22;-0.10;99.90
22471;DHT22;11402;51.374;6.594;2023-02-26T06:12:47;0.00;99.90
22471;DHT22;11402;51.374;6.594;2023-02-26T06:15:13;0.00;99.90
22471;DHT22;11402;51.374;6.594;2023-02-26T06:17:38;-0.10;99.90
22471;DHT22;11402;51.374;6.594;2023-02-26T06:20:04;0.00;99.90
22471;DHT22;11402;51.374;6.594;2023-02-26T06:22:30;-0.20;99.90
22471;DHT22;11402;51.374;6.594;2023-02-26T06:24:56;0.00;99.90
22471;DHT22;11402;51.374;6.594;2023-02-26T06:27:22;0.10;99.90
22471;DHT22;11402;51.374;6.594;2023-02-26T06:29:48;-0.10;99.90
22471;DHT22;11402;51.374;6.594;2023-02-26T06:32:13;0.00;99.90
22471;DHT22;11402;51.374;6.594;2023-02-26T06:34:39;-0.10;99.90
22471;DHT22;11402;51.374;6.594;2023-02-26T06:37:04;0.00;99.90
22471;DHT22;11402;51.374;6.594;2023-02-26T06:39:30;-0.10;99.90
22471;DHT22;11402;51.374;6.594;2023-02-26T06:41:56;-0.20;99.90
22471;DHT22;11402;51.374;6.594;2023-02-26T06:44:21;-0.40;99.90
22471;DHT22;11402;51.374;6.594;2023-02-26T06:46:47;-0.30;99.90
22471;DHT22;11402;51.374;6.594;2023-02-26T06:49:12;-0.20;99.90
22471;DHT22;11402;51.374;6.594;2023-02-26T06:51:39;-0.10;99.90
22471;DHT22;11402;51.374;6.594;2023-02-26T06:54:05;0.00;99.90
22471;DHT22;11402;51.374;6.594;2023-02-26T06:56:30;0.00;99.90
22471;DHT22;11402;51.374;6.594;2023-02-26T06:58:56;-0.10;99.90
22471;DHT22;11402;51.374;6.594;2023-02-26T07:01:21;-0.20;99.90
22471;DHT22;11402;51.374;6.594;2023-02-26T07:03:48;-0.10;99.90
22471;DHT22;11402;51.374;6.594;2023-02-26T07:06:14;-0.10;99.90
22471;DHT22;11402;51.374;6.594;2023-02-26T07:08:40;-0.20;99.90
22471;DHT22;11402;51.374;6.594;2023-02-26T07:11:05;-0.10;99.90
22471;DHT22;11402;51.374;6.594;2023-02-26T07:13:33;-0.10;99.90
22471;DHT22;11402;51.374;6.594;2023-02-26T07:15:59;-0.10;99.90
22471;DHT22;11402;51.374;6.594;2023-02-26T07:18:24;0.10;99.90
22471;DHT22;11402;51.374;6.594;2023-02-26T07:20:50;0.00;99.90
22471;DHT22;11402;51.374;6.594;2023-02-26T07:23:16;0.10;99.90
22471;DHT22;11402;51.374;6.594;2023-02-26T07:25:41;0.10;99.90
22471;DHT22;11402;51.374;6.594;2023-02-26T07:28:07;0.30;99.90
22471;DHT22;11402;51.374;6.594;2023-02-26T07:30:32;0.10;99.90
22471;DHT22;11402;51.374;6.594;2023-02-26T07:32:58;0.00;99.90
22471;DHT22;11402;51.374;6.594;2023-02-26T07:35:24;0.30;99.90
22471;DHT22;11402;51.374;6.594;2023-02-26T07:37:49;0.20;99.90
22471;DHT22;11402;51.374;6.594;2023-02-26T07:40:16;0.20;99.90
22471;DHT22;11402;51.374;6.594;2023-02-26T07:42:42;0.30;99.90
22471;DHT22;11402;51.374;6.594;2023-02-26T07:45:08;0.30;99.90
22471;DHT22;11402;51.374;6.594;2023-02-26T07:47:34;0.30;99.90
22471;DHT22;11402;51.374;6.594;2023-02-26T07:50:00;0.40;99.90
22471;DHT22;11402;51.374;6.594;2023-02-26T07:52:26;0.40;99.90
22471;DHT22;11402;51.374;6.594;2023-02-26T07:54:51;0.60;99.90
22471;DHT22;11402;51.374;6.594;2023-02-26T07:57:17;0.60;99.90
22471;DHT22;11402;51.374;6.594;2023-02-26T07:59:43;0.70;99.90
22471;DHT22;11402;51.374;6.594;2023-02-26T08:02:10;0.70;99.90
22471;DHT22;11402;51.374;6.594;2023-02-26T08:04:36;0.80;99.90
22471;DHT22;11402;51.374;6.594;2023-02-26T08:07:02;0.90;99.90
22471;DHT22;11402;51.374;6.594;2023-02-26T08:09:27;0.80;99.90
22471;DHT22;11402;51.374;6.594;2023-02-26T08:11:53;0.90;99.90
22471;DHT22;11402;51.374;6.594;2023-02-26T08:14:18;0.90;99.90
22471;DHT22;11402;51.374;6.594;2023-02-26T08:16:44;0.80;99.90
22471;DHT22;11402;51.374;6.594;2023-02-26T08:19:10;0.90;99.90
22471;DHT22;11402;51.374;6.594;2023-02-26T08:21:35;1.00;99.90
22471;DHT22;11402;51.374;6.594;2023-02-26T08:24:01;1.00;99.90
22471;DHT22;11402;51.374;6.594;2023-02-26T08:26:26;1.20;99.90
22471;DHT22;11402;51.374;6.594;2023-02-26T08:28:52;1.20;99.90
22471;DHT22;11402;51.374;6.594;2023-02-26T08:31:19;1.30;99.90
22471;DHT22;11402;51.374;6.594;2023-02-26T08:33:45;1.30;99.90
22471;DHT22;11402;51.374;6.594;2023-02-26T08:36:10;1.30;99.90
22471;DHT22;11402;51.374;6.594;2023-02-26T08:38:36;1.40;99.90
22471;DHT22;11402;51.374;6.594;2023-02-26T08:41:01;1.40;99.90
22471;DHT22;11402;51.374;6.594;2023-02-26T08:43:27;1.50;99.90
22471;DHT22;11402;51.374;6.594;2023-02-26T08:45:55;1.60;99.90
22471;DHT22;11402;51.374;6.594;2023-02-26T08:48:22;1.60;99.90
22471;DHT22;11402;51.374;6.594;2023-02-26T08:50:48;1.60;99.90
22471;DHT22;11402;51.374;6.594;2023-02-26T08:53:13;1.60;99.90
22471;DHT22;11402;51.374;6.594;2023-02-26T08:55:39;1.70;99.90
22471;DHT22;11402;51.374;6.594;2023-02-26T08:58:04;1.70;99.90
22471;DHT22;11402;51.374;6.594;2023-02-26T09:00:30;1.80;99.90
22471;DHT22;11402;51.374;6.594;2023-02-26T09:02:56;1.80;99.90
22471;DHT22;11402;51.374;6.594;2023-02-26T09:05:21;1.90;99.90
22471;DHT22;11402;51.374;6.594;2023-02-26T09:07:47;2.00;99.90
22471;DHT22;11402;51.374;6.594;2023-02-26T09:10:13;2.20;99.90
22471;DHT22;11402;51.374;6.594;2023-02-26T09:12:39;2.10;99.90
22471;DHT22;11402;51.374;6.594;2023-02-26T09:15:06;2.20;99.90
22471;DHT22;11402;51.374;6.594;2023-02-26T09:17:33;2.10;99.90
22471;DHT22;11402;51.374;6.594;2023-02-26T09:19:58;2.20;99.90
22471;DHT22;11402;51.374;6.594;2023-02-26T09:22:24;2.10;99.90
22471;DHT22;11402;51.374;6.594;2023-02-26T09:24:50;2.10;99.90
22471;DHT22;11402;51.374;6.594;2023-02-26T09:27:16;2.20;99.90
22471;DHT22;11402;51.374;6.594;2023-02-26T09:29:41;2.20;99.90
22471;DHT22;11402;51.374;6.594;2023-02-26T09:32:07;2.30;99.90
22471;DHT22;11402;51.374;6.594;2023-02-26T09:34:37;2.50;99.90
22471;DHT22;11402;51.374;6.594;2023-02-26T09:37:04;2.70;99.90
22471;DHT22;11402;51.374;6.594;2023-02-26T09:39:30;2.60;99.90
22471;DHT22;11402;51.374;6.594;2023-02-26T09:41:59;2.50;99.90
22471;DHT22;11402;51.374;6.594;2023-02-26T09:44:30;2.60;99.90
22471;DHT22;11402;51.374;6.594;2023-02-26T09:47:34;2.80;99.90
22471;DHT22;11402;51.374;6.594;2023-02-26T09:50:10;2.90;99.90
22471;DHT22;11402;51.374;6.594;2023-02-26T09:55:15;2.90;99.90
22471;DHT22;11402;51.374;6.594;2023-02-26T09:57:46;3.00;99.90
22471;DHT22;11402;51.374;6.594;2023-02-26T10:00:26;3.10;99.90
22471;DHT22;11402;51.374;6.594;2023-02-26T10:08:21;2.90;99.90
22471;DHT22;11402;51.374;6.594;2023-02-26T10:10:56;2.90;99.90
22471;DHT22;11402;51.374;6.594;2023-02-26T10:13:41;3.00;99.90
22471;DHT22;11402;51.374;6.594;2023-02-26T10:16:14;3.20;99.90
22471;DHT22;11402;51.374;6.594;2023-02-26T10:18:47;3.30;99.90
22471;DHT22;11402;51.374;6.594;2023-02-26T10:21:16;3.30;99.90
22471;DHT22;11402;51.374;6.594;2023-02-26T10:23:49;3.30;99.90
22471;DHT22;11402;51.374;6.594;2023-02-26T10:29:02;3.30;99.90
22471;DHT22;11402;51.374;6.594;2023-02-26T10:31:48;3.10;99.90
22471;DHT22;11402;51.374;6.594;2023-02-26T10:34:31;3.10;99.90
22471;DHT22;11402;51.374;6.594;2023-02-26T10:37:16;3.20;99.90
22471;DHT22;11402;51.374;6.594;2023-02-26T10:40:15;3.30;99.90
22471;DHT22;11402;51.374;6.594;2023-02-26T10:42:49;3.20;99.90
22471;DHT22;11402;51.374;6.594;2023-02-26T10:45:32;3.20;99.90
22471;DHT22;11402;51.374;6.594;2023-02-26T10:48:03;3.40;99.90
22471;DHT22;11402;51.374;6.594;2023-02-26T10:50:31;3.50;99.90
22471;DHT22;11402;51.374;6.594;2023-02-26T10:52:57;3.50;99.90
22471;DHT22;11402;51.374;6.594;2023-02-26T10:58:13;3.70;99.90
22471;DHT22;11402;51.374;6.594;2023-02-26T11:00:47;3.70;99.90
22471;DHT22;11402;51.374;6.594;2023-02-26T11:03:41;3.60;99.90
22471;DHT22;11402;51.374;6.594;2023-02-26T11:06:07;3.80;99.90
22471;DHT22;11402;51.374;6.594;2023-02-26T11:08:42;3.60;99.90
22471;DHT22;11402;51.374;6.594;2023-02-26T11:11:09;3.90;99.90
22471;DHT22;11402;51.374;6.594;2023-02-26T11:13:37;4.30;99.90
22471;DHT22;11402;51.374;6.594;2023-02-26T11:16:10;3.90;99.90
22471;DHT22;11402;51.374;6.594;2023-02-26T11:18:45;4.00;99.90
22471;DHT22;11402;51.374;6.594;2023-02-26T11:21:18;4.10;99.90
22471;DHT22;11402;51.374;6.594;2023-02-26T11:23:45;4.20;99.90
22471;DHT22;11402;51.374;6.594;2023-02-26T11:26:18;4.20;99.90
22471;DHT22;11402;51.374;6.594;2023-02-26T11:28:53;4.20;99.90
22471;DHT22;11402;51.374;6.594;2023-02-26T11:31:21;4.40;99.90
22471;DHT22;11402;51.374;6.594;2023-02-26T11:33:49;4.30;99.90
22471;DHT22;11402;51.374;6.594;2023-02-26T11:36:17;4.20;99.90
22471;DHT22;11402;51.374;6.594;2023-02-26T11:38:46;4.20;99.90
22471;DHT22;11402;51.374;6.594;2023-02-26T11:41:17;4.20;99.90
22471;DHT22;11402;51.374;6.594;2023-02-26T11:43:58;4.30;99.90
22471;DHT22;11402;51.374;6.594;2023-02-26T11:46:25;4.30;99.90
22471;DHT22;11402;51.374;6.594;2023-02-26T11:48:52;4.20;99.90
22471;DHT22;11402;51.374;6.594;2023-02-26T11:51:23;4.40;99.90
22471;DHT22;11402;51.374;6.594;2023-02-26T11:53:54;4.50;99.90
22471;DHT22;11402;51.374;6.594;2023-02-26T11:59:00;4.70;99.90
22471;DHT22;11402;51.374;6.594;2023-02-26T12:01:28;4.80;99.90
22471;DHT22;11402;51.374;6.594;2023-02-26T12:03:58;4.70;99.90
22471;DHT22;11402;51.374;6.594;2023-02-26T12:06:25;4.70;99.90
22471;DHT22;11402;51.374;6.594;2023-02-26T12:08:51;4.50;99.90
22471;DHT22;11402;51.374;6.594;2023-02-26T12:11:56;4.50;99.90
22471;DHT22;11402;51.374;6.594;2023-02-26T12:32:13;4.40;99.90
22471;DHT22;11402;51.374;6.594;2023-02-26T12:35:07;4.40;99.90
22471;DHT22;11402;51.374;6.594;2023-02-26T12:37:59;4.40;99.90
22471;DHT22;11402;51.374;6.594;2023-02-26T12:52:32;4.70;99.90
22471;DHT22;11402;51.374;6.594;2023-02-26T12:55:13;4.50;99.90
22471;DHT22;11402;51.374;6.594;2023-02-26T13:02:59;4.50;99.90
22471;DHT22;11402;51.374;6.594;2023-02-26T13:05:45;4.60;99.90
22471;DHT22;11402;51.374;6.594;2023-02-26T13:08:34;4.60;99.90
22471;DHT22;11402;51.374;6.594;2023-02-26T13:13:47;4.80;99.90
22471;DHT22;11402;51.374;6.594;2023-02-26T13:16:41;4.60;99.90
22471;DHT22;11402;51.374;6.594;2023-02-26T13:22:04;4.50;99.90
22471;DHT22;11402;51.374;6.594;2023-02-26T13:24:36;4.50;99.90
22471;DHT22;11402;51.374;6.594;2023-02-26T13:27:04;4.60;99.90
22471;DHT22;11402;51.374;6.594;2023-02-26T13:29:55;4.50;99.90
22471;DHT22;11402;51.374;6.594;2023-02-26T13:32:24;4.50;99.90
22471;DHT22;11402;51.374;6.594;2023-02-26T13:35:01;4.40;99.90
22471;DHT22;11402;51.374;6.594;2023-02-26T13:37:37;4.50;99.90
22471;DHT22;11402;51.374;6.594;2023-02-26T13:45:51;4.50;99.90
22471;DHT22;11402;51.374;6.594;2023-02-26T13:48:37;4.60;99.90
22471;DHT22;11402;51.374;6.594;2023-02-26T13:51:39;4.70;99.90
22471;DHT22;11402;51.374;6.594;2023-02-26T13:59:24;4.50;99.90
22471;DHT22;11402;51.374;6.594;2023-02-26T14:06:55;4.70;99.90
22471;DHT22;11402;51.374;6.594;2023-02-26T14:15:38;4.80;99.90
22471;DHT22;11402;51.374;6.594;2023-02-26T14:32:52;4.70;99.90
22471;DHT22;11402;51.374;6.594;2023-02-26T14:35:22;4.80;99.90
22471;DHT22;11402;51.374;6.594;2023-02-26T14:38:14;4.90;99.90
22471;DHT22;11402;51.374;6.594;2023-02-26T14:40:49;4.70;99.90
22471;DHT22;11402;51.374;6.594;2023-02-26T14:45:56;4.80;99.90
22471;DHT22;11402;51.374;6.594;2023-02-26T14:48:22;4.90;99.90
22471;DHT22;11402;51.374;6.594;2023-02-26T14:51:06;4.80;99.90
22471;DHT22;11402;51.374;6.594;2023-02-26T14:56:44;4.90;99.90
22471;DHT22;11402;51.374;6.594;2023-02-26T15:10:14;4.80;99.90
22471;DHT22;11402;51.374;6.594;2023-02-26T15:12:59;4.80;99.90
22471;DHT22;11402;51.374;6.594;2023-02-26T15:23:59;4.70;99.90
22471;DHT22;11402;51.374;6.594;2023-02-26T15:26:28;4.80;99.90
22471;DHT22;11402;51.374;6.594;2023-02-26T15:28:56;4.90;99.90
22471;DHT22;11402;51.374;6.594;2023-02-26T15:31:40;4.90;99.90
22471;DHT22;11402;51.374;6.594;2023-02-26T15:34:05;4.90;99.90
22471;DHT22;11402;51.374;6.594;2023-02-26T15:36:34;4.90;99.90
22471;DHT22;11402;51.374;6.594;2023-02-26T15:39:01;4.90;99.90
22471;DHT22;11402;51.374;6.594;2023-02-26T15:41:31;4.90;99.90
22471;DHT22;11402;51.374;6.594;2023-02-26T15:44:06;4.90;99.90
22471;DHT22;11402;51.374;6.594;2023-02-26T15:46:40;4.90;99.90
22471;DHT22;11402;51.374;6.594;2023-02-26T15:49:06;4.90;99.90
22471;DHT22;11402;51.374;6.594;2023-02-26T15:51:33;4.90;99.90
22471;DHT22;11402;51.374;6.594;2023-02-26T15:53:59;4.90;99.90
22471;DHT22;11402;51.374;6.594;2023-02-26T15:56:34;4.80;99.90
22471;DHT22;11402;51.374;6.594;2023-02-26T15:59:06;4.90;99.90
22471;DHT22;11402;51.374;6.594;2023-02-26T16:01:33;4.90;99.90
22471;DHT22;11402;51.374;6.594;2023-02-26T16:04:04;4.90;99.90
22471;DHT22;11402;51.374;6.594;2023-02-26T16:06:40;4.80;99.90
22471;DHT22;11402;51.374;6.594;2023-02-26T16:09:08;4.70;99.90
22471;DHT22;11402;51.374;6.594;2023-02-26T16:11:40;4.70;99.90
22471;DHT22;11402;51.374;6.594;2023-02-26T16:14:14;4.70;99.90
22471;DHT22;11402;51.374;6.594;2023-02-26T16:16:44;4.70;99.90
22471;DHT22;11402;51.374;6.594;2023-02-26T16:19:15;4.70;99.90
22471;DHT22;11402;51.374;6.594;2023-02-26T16:21:42;4.60;99.90
22471;DHT22;11402;51.374;6.594;2023-02-26T16:24:14;4.60;99.90
22471;DHT22;11402;51.374;6.594;2023-02-26T16:26:51;4.60;99.90
22471;DHT22;11402;51.374;6.594;2023-02-26T16:29:22;4.70;99.90
22471;DHT22;11402;51.374;6.594;2023-02-26T16:31:54;4.50;99.90
22471;DHT22;11402;51.374;6.594;2023-02-26T16:34:31;4.70;99.90
22471;DHT22;11402;51.374;6.594;2023-02-26T16:37:17;4.50;99.90
22471;DHT22;11402;51.374;6.594;2023-02-26T16:39:45;4.40;99.90
22471;DHT22;11402;51.374;6.594;2023-02-26T16:42:15;4.50;99.90
22471;DHT22;11402;51.374;6.594;2023-02-26T16:44:56;4.50;99.90
22471;DHT22;11402;51.374;6.594;2023-02-26T16:47:28;4.40;99.90
22471;DHT22;11402;51.374;6.594;2023-02-26T16:49:55;4.20;99.90
22471;DHT22;11402;51.374;6.594;2023-02-26T16:52:23;4.30;99.90
22471;DHT22;11402;51.374;6.594;2023-02-26T16:54:57;4.40;99.90
22471;DHT22;11402;51.374;6.594;2023-02-26T16:57:38;4.30;99.90
22471;DHT22;11402;51.374;6.594;2023-02-26T17:00:10;4.30;99.90
22471;DHT22;11402;51.374;6.594;2023-02-26T17:02:40;4.20;99.90
22471;DHT22;11402;51.374;6.594;2023-02-26T17:05:28;4.10;99.90
22471;DHT22;11402;51.374;6.594;2023-02-26T17:08:00;4.10;99.90
22471;DHT22;11402;51.374;6.594;2023-02-26T17:10:38;4.20;99.90
22471;DHT22;11402;51.374;6.594;2023-02-26T17:13:23;4.20;99.90
22471;DHT22;11402;51.374;6.594;2023-02-26T17:15:50;4.10;99.90
22471;DHT22;11402;51.374;6.594;2023-02-26T17:18:18;4.00;99.90
22471;DHT22;11402;51.374;6.594;2023-02-26T17:20:45;4.10;99.90
22471;DHT22;11402;51.374;6.594;2023-02-26T17:23:13;4.00;99.90
22471;DHT22;11402;51.374;6.594;2023-02-26T17:25:44;4.10;99.90
22471;DHT22;11402;51.374;6.594;2023-02-26T17:28:20;3.90;99.90
22471;DHT22;11402;51.374;6.594;2023-02-26T17:30:45;3.90;99.90
22471;DHT22;11402;51.374;6.594;2023-02-26T17:33:12;3.80;99.90
22471;DHT22;11402;51.374;6.594;2023-02-26T17:35:39;3.90;99.90
22471;DHT22;11402;51.374;6.594;2023-02-26T17:38:04;3.80;99.90
22471;DHT22;11402;51.374;6.594;2023-02-26T17:40:33;3.80;99.90
22471;DHT22;11402;51.374;6.594;2023-02-26T17:43:03;3.80;99.90
22471;DHT22;11402;51.374;6.594;2023-02-26T17:45:29;3.70;99.90
22471;DHT22;11402;51.374;6.594;2023-02-26T17:47:55;3.70;99.90
22471;DHT22;11402;51.374;6.594;2023-02-26T17:53:15;3.80;99.90
22471;DHT22;11402;51.374;6.594;2023-02-26T17:55:42;3.90;99.90
22471;DHT22;11402;51.374;6.594;2023-02-26T17:58:18;3.80;99.90
22471;DHT22;11402;51.374;6.594;2023-02-26T18:00:46;4.00;99.90
22471;DHT22;11402;51.374;6.594;2023-02-26T18:03:14;3.70;99.90
22471;DHT22;11402;51.374;6.594;2023-02-26T18:05:40;3.60;99.90
22471;DHT22;11402;51.374;6.594;2023-02-26T18:08:23;3.60;99.90
22471;DHT22;11402;51.374;6.594;2023-02-26T18:10:49;3.50;99.90
22471;DHT22;11402;51.374;6.594;2023-02-26T18:13:15;3.60;99.90
22471;DHT22;11402;51.374;6.594;2023-02-26T18:15:40;3.60;99.90
22471;DHT22;11402;51.374;6.594;2023-02-26T18:18:09;3.70;99.90
22471;DHT22;11402;51.374;6.594;2023-02-26T18:20:35;3.60;99.90
22471;DHT22;11402;51.374;6.594;2023-02-26T18:23:01;3.60;99.90
22471;DHT22;11402;51.374;6.594;2023-02-26T18:25:26;3.70;99.90
22471;DHT22;11402;51.374;6.594;2023-02-26T18:27:54;3.60;99.90
22471;DHT22;11402;51.374;6.594;2023-02-26T18:30:30;3.60;99.90
22471;DHT22;11402;51.374;6.594;2023-02-26T18:32:56;3.70;99.90
22471;DHT22;11402;51.374;6.594;2023-02-26T18:35:23;3.60;99.90
22471;DHT22;11402;51.374;6.594;2023-02-26T18:37:51;3.70;99.90